createdAt,value
2018-09-26T00:00:19.170Z,6.15
2018-09-26T00:02:53.226Z,6.22
2018-09-26T00:05:22.015Z,6.26
2018-09-26T00:07:50.835Z,6.24
2018-09-26T00:10:19.547Z,6.21
2018-09-26T00:12:48.178Z,6.19
2018-09-26T00:15:16.855Z,6.11
2018-09-26T00:17:45.541Z,6.09
2018-09-26T00:20:14.235Z,6.14
2018-09-26T00:22:42.938Z,6.08
2018-09-26T00:25:11.762Z,5.98
2018-09-26T00:27:40.516Z,6.01
2018-09-26T00:30:09.231Z,6.04
2018-09-26T00:32:37.920Z,6.03
2018-09-26T00:35:13.388Z,6.02
2018-09-26T00:37:42.023Z,6.03
2018-09-26T00:40:10.696Z,6.08
2018-09-26T00:42:39.378Z,6.14
2018-09-26T00:45:08.127Z,6.10
2018-09-26T00:47:36.752Z,6.07
2018-09-26T00:50:05.476Z,5.99
2018-09-26T00:52:34.117Z,5.94
2018-09-26T00:55:02.833Z,5.91
2018-09-26T00:57:31.404Z,5.91
2018-09-26T00:59:59.995Z,5.97
2018-09-26T01:02:29.501Z,5.98
2018-09-26T01:04:58.127Z,5.94
2018-09-26T01:07:26.730Z,5.82
2018-09-26T01:09:56.406Z,5.71
2018-09-26T01:12:25.018Z,5.61
2018-09-26T01:14:53.649Z,5.59
2018-09-26T01:17:22.261Z,5.50
2018-09-26T01:19:50.928Z,5.46
2018-09-26T01:22:19.494Z,5.50
2018-09-26T01:24:48.117Z,5.46
2018-09-26T01:27:16.725Z,5.42
2018-09-26T01:29:45.309Z,5.32
2018-09-26T01:32:13.964Z,5.36
2018-09-26T01:34:42.579Z,5.26
2018-09-26T01:37:11.319Z,5.17
2018-09-26T01:39:39.921Z,5.12
2018-09-26T01:42:08.654Z,4.99
2018-09-26T01:44:37.330Z,4.92
2018-09-26T01:47:06.056Z,4.86
2018-09-26T01:49:34.642Z,4.84
2018-09-26T01:52:03.313Z,4.80
2018-09-26T01:54:31.985Z,4.77
2018-09-26T01:57:01.726Z,4.71
2018-09-26T01:59:30.722Z,4.65
2018-09-26T02:01:59.731Z,4.69
2018-09-26T02:04:28.465Z,4.69
2018-09-26T02:06:57.228Z,4.56
2018-09-26T02:09:25.849Z,4.49
2018-09-26T02:11:54.491Z,4.45
2018-09-26T02:14:23.163Z,4.41
2018-09-26T02:16:51.760Z,4.40
2018-09-26T02:19:20.377Z,4.38
2018-09-26T02:21:48.997Z,4.42
2018-09-26T02:24:17.637Z,4.48
2018-09-26T02:26:46.237Z,4.40
2018-09-26T02:29:14.857Z,4.41
2018-09-26T02:31:43.486Z,4.34
2018-09-26T02:34:12.143Z,4.28
2018-09-26T02:36:40.753Z,4.23
2018-09-26T02:39:10.315Z,4.32
2018-09-26T02:41:38.926Z,4.19
2018-09-26T02:44:07.867Z,4.03
2018-09-26T02:46:36.473Z,4.02
2018-09-26T02:49:05.807Z,4.03
2018-09-26T02:51:36.023Z,4.16
2018-09-26T02:54:05.022Z,4.40
2018-09-26T02:56:33.632Z,4.55
2018-09-26T02:59:02.352Z,4.49
2018-09-26T03:01:31.077Z,4.54
2018-09-26T03:03:59.645Z,4.45
2018-09-26T03:06:28.292Z,4.52
2018-09-26T03:08:56.913Z,4.57
2018-09-26T03:11:25.521Z,4.50
2018-09-26T03:13:54.173Z,4.47
2018-09-26T03:16:22.757Z,4.59
2018-09-26T03:18:51.386Z,4.48
2018-09-26T03:21:19.962Z,4.49
2018-09-26T03:23:48.566Z,4.36
2018-09-26T03:26:17.145Z,4.32
2018-09-26T03:28:45.876Z,4.29
2018-09-26T03:31:14.449Z,4.25
2018-09-26T03:33:43.051Z,4.32
2018-09-26T03:36:11.632Z,4.43
2018-09-26T03:38:40.208Z,4.46
2018-09-26T03:41:08.963Z,4.45
2018-09-26T03:43:37.564Z,4.37
2018-09-26T03:46:06.342Z,4.34
2018-09-26T03:48:35.084Z,4.35
2018-09-26T03:51:03.705Z,4.38
2018-09-26T03:53:32.313Z,4.37
2018-09-26T03:56:01.127Z,4.29
2018-09-26T03:58:29.701Z,4.29
2018-09-26T04:00:58.389Z,4.31
2018-09-26T04:03:28.365Z,4.34
2018-09-26T04:05:56.961Z,4.30
2018-09-26T04:08:26.134Z,4.29
2018-09-26T04:10:54.864Z,4.32
2018-09-26T04:13:23.487Z,4.33
2018-09-26T04:15:52.974Z,4.21
2018-09-26T04:18:22.921Z,4.11
2018-09-26T04:20:51.531Z,3.98
2018-09-26T04:25:53.911Z,3.93
2018-09-26T04:28:22.508Z,3.88
2018-09-26T04:30:51.213Z,3.85
2018-09-26T04:33:20.305Z,3.81
2018-09-26T04:35:48.773Z,3.84
2018-09-26T04:38:17.377Z,3.87
2018-09-26T04:40:45.965Z,3.83
2018-09-26T04:43:14.603Z,3.75
2018-09-26T04:45:43.176Z,3.77
2018-09-26T04:48:11.899Z,3.77
2018-09-26T04:50:40.625Z,3.80
2018-09-26T04:53:09.233Z,3.85
2018-09-26T04:55:37.846Z,4.02
2018-09-26T04:58:06.668Z,4.07
2018-09-26T05:00:35.163Z,4.11
2018-09-26T05:03:03.833Z,4.17
2018-09-26T05:05:32.598Z,4.18
2018-09-26T05:08:01.192Z,4.25
2018-09-26T05:10:29.839Z,4.35
2018-09-26T05:12:58.470Z,4.31
2018-09-26T05:15:27.070Z,4.49
2018-09-26T05:17:55.738Z,4.50
2018-09-26T05:20:24.478Z,4.50
2018-09-26T05:22:53.338Z,4.52
2018-09-26T05:25:21.879Z,4.61
2018-09-26T05:27:50.758Z,4.67
2018-09-26T05:30:19.472Z,4.70
2018-09-26T05:32:48.169Z,4.83
2018-09-26T05:35:16.786Z,4.84
2018-09-26T05:37:45.434Z,4.88
2018-09-26T05:40:14.194Z,4.91
2018-09-26T05:42:42.830Z,4.98
2018-09-26T05:45:11.471Z,5.05
2018-09-26T05:47:40.144Z,5.10
2018-09-26T05:50:08.793Z,5.19
2018-09-26T05:52:37.388Z,5.22
2018-09-26T05:55:06.164Z,5.33
2018-09-26T05:57:34.892Z,5.42
2018-09-26T06:00:03.546Z,5.61
2018-09-26T06:02:32.216Z,5.72
2018-09-26T06:05:00.882Z,5.87
2018-09-26T06:07:29.560Z,5.93
2018-09-26T06:09:58.212Z,6.02
2018-09-26T06:12:27.492Z,6.11
2018-09-26T06:14:56.116Z,6.21
2018-09-26T06:17:24.737Z,6.27
2018-09-26T06:19:53.423Z,6.33
2018-09-26T06:22:22.156Z,6.42
2018-09-26T06:24:50.885Z,6.51
2018-09-26T06:27:19.512Z,6.60
2018-09-26T06:29:48.157Z,6.73
2018-09-26T06:32:16.850Z,6.84
2018-09-26T06:34:45.590Z,7.00
2018-09-26T06:37:14.242Z,7.13
2018-09-26T06:39:42.943Z,7.27
2018-09-26T06:42:11.623Z,7.44
2018-09-26T06:44:40.244Z,7.60
2018-09-26T06:47:08.903Z,7.81
2018-09-26T06:49:37.584Z,8.03
2018-09-26T06:52:06.306Z,8.13
2018-09-26T06:54:35.178Z,8.27
2018-09-26T06:57:03.934Z,8.44
2018-09-26T06:59:32.645Z,8.55
2018-09-26T07:02:01.391Z,8.71
2018-09-26T07:04:30.047Z,8.86
2018-09-26T07:06:58.693Z,9.04
2018-09-26T07:09:27.339Z,9.12
2018-09-26T07:11:56.037Z,9.22
2018-09-26T07:14:24.723Z,9.30
2018-09-26T07:16:53.446Z,9.40
2018-09-26T07:21:56.230Z,9.76
2018-09-26T07:24:24.866Z,9.76
2018-09-26T07:26:53.547Z,9.87
2018-09-26T07:29:22.302Z,9.86
2018-09-26T07:31:50.995Z,9.84
2018-09-26T07:34:23.809Z,9.78
2018-09-26T07:36:52.691Z,9.77
2018-09-26T07:39:21.399Z,9.85
2018-09-26T07:41:50.186Z,9.87
2018-09-26T07:44:18.824Z,9.91
2018-09-26T07:46:47.462Z,10.03
2018-09-26T07:49:16.207Z,10.06
2018-09-26T07:51:44.969Z,10.19
2018-09-26T07:54:13.860Z,10.16
2018-09-26T07:56:42.621Z,10.35
2018-09-26T07:59:11.383Z,10.35
2018-09-26T08:01:39.971Z,10.39
2018-09-26T08:04:08.719Z,10.47
2018-09-26T08:06:37.342Z,10.44
2018-09-26T08:09:07.348Z,10.63
2018-09-26T08:11:36.486Z,10.71
2018-09-26T08:14:05.486Z,10.76
2018-09-26T08:16:34.218Z,10.88
2018-09-26T08:19:03.001Z,10.98
2018-09-26T08:21:31.683Z,11.07
2018-09-26T08:24:00.483Z,11.17
2018-09-26T08:26:29.080Z,11.35
2018-09-26T08:28:57.767Z,11.48
2018-09-26T08:31:26.663Z,11.47
2018-09-26T08:33:56.600Z,11.59
2018-09-26T08:36:25.298Z,11.71
2018-09-26T08:38:53.939Z,11.79
2018-09-26T08:41:22.754Z,11.85
2018-09-26T08:43:51.467Z,11.95
2018-09-26T08:46:20.392Z,12.04
2018-09-26T08:48:49.235Z,12.20
2018-09-26T08:51:17.930Z,12.22
2018-09-26T08:53:46.613Z,12.24
2018-09-26T08:56:15.229Z,12.37
2018-09-26T08:58:43.939Z,12.40
2018-09-26T09:01:18.029Z,12.49
2018-09-26T09:03:46.728Z,12.48
2018-09-26T09:06:15.517Z,12.56
2018-09-26T09:08:44.117Z,12.62
2018-09-26T09:11:12.791Z,12.68
2018-09-26T09:13:41.502Z,12.79
2018-09-26T09:16:10.186Z,12.90
2018-09-26T09:18:38.934Z,12.96
2018-09-26T09:21:08.253Z,13.05
2018-09-26T09:23:36.890Z,13.27
2018-09-26T09:26:05.558Z,13.32
2018-09-26T09:28:35.160Z,13.36
2018-09-26T09:31:03.867Z,13.37
2018-09-26T09:33:32.864Z,13.44
2018-09-26T09:36:01.558Z,13.50
2018-09-26T09:38:30.291Z,13.54
2018-09-26T09:40:58.954Z,13.57
2018-09-26T09:43:27.659Z,13.66
2018-09-26T09:45:56.348Z,13.80
2018-09-26T09:48:25.049Z,13.74
2018-09-26T09:50:53.783Z,13.78
2018-09-26T09:53:22.482Z,13.87
2018-09-26T09:55:52.144Z,13.72
2018-09-26T09:58:21.711Z,13.82
2018-09-26T10:00:55.661Z,13.85
2018-09-26T10:03:24.432Z,14.04
2018-09-26T10:05:53.870Z,14.09
2018-09-26T10:08:23.003Z,14.17
2018-09-26T10:10:51.699Z,14.08
2018-09-26T10:13:20.622Z,14.05
2018-09-26T10:15:49.334Z,14.21
2018-09-26T10:18:18.150Z,14.28
2018-09-26T10:20:46.784Z,14.35
2018-09-26T10:23:15.395Z,14.46
2018-09-26T10:25:44.051Z,14.51
2018-09-26T10:28:12.715Z,14.53
2018-09-26T10:30:41.417Z,14.74
2018-09-26T10:33:10.095Z,14.61
2018-09-26T10:35:38.823Z,14.76
2018-09-26T10:38:07.487Z,14.87
2018-09-26T10:40:36.052Z,15.04
2018-09-26T10:43:04.692Z,15.40
2018-09-26T10:45:33.216Z,15.98
2018-09-26T10:48:07.340Z,16.16
2018-09-26T10:50:35.869Z,16.36
2018-09-26T10:53:09.732Z,16.46
2018-09-26T10:55:38.317Z,16.69
2018-09-26T10:58:06.896Z,16.78
2018-09-26T11:00:35.411Z,16.81
2018-09-26T11:03:03.954Z,16.78
2018-09-26T11:05:32.482Z,16.78
2018-09-26T11:08:01.026Z,16.86
2018-09-26T11:10:29.579Z,16.88
2018-09-26T11:12:58.319Z,17.10
2018-09-26T11:15:26.937Z,17.29
2018-09-26T11:17:55.430Z,17.21
2018-09-26T11:20:23.993Z,17.17
2018-09-26T11:22:52.493Z,16.86
2018-09-26T11:25:21.050Z,16.99
2018-09-26T11:27:49.632Z,17.07
2018-09-26T11:30:18.245Z,17.16
2018-09-26T11:32:46.802Z,17.03
2018-09-26T11:35:15.507Z,17.01
2018-09-26T11:37:44.129Z,16.97
2018-09-26T11:40:12.717Z,17.06
2018-09-26T11:42:41.404Z,17.34
2018-09-26T11:45:10.010Z,17.19
2018-09-26T11:47:38.548Z,17.03
2018-09-26T11:50:07.137Z,17.08
2018-09-26T11:52:35.686Z,17.27
2018-09-26T11:55:04.436Z,17.27
2018-09-26T11:57:32.984Z,17.18
2018-09-26T12:00:01.563Z,17.06
2018-09-26T12:02:30.258Z,16.99
2018-09-26T12:04:58.914Z,16.98
2018-09-26T12:07:27.578Z,16.91
2018-09-26T12:09:56.163Z,17.01
2018-09-26T12:12:24.860Z,17.04
2018-09-26T12:14:53.430Z,17.08
2018-09-26T12:17:22.630Z,17.26
2018-09-26T12:19:51.234Z,17.38
2018-09-26T12:22:19.947Z,17.33
2018-09-26T12:24:48.596Z,17.39
2018-09-26T12:27:17.466Z,17.53
2018-09-26T12:29:46.154Z,17.42
2018-09-26T12:32:14.786Z,17.57
2018-09-26T12:34:43.432Z,17.78
2018-09-26T12:37:12.008Z,17.86
2018-09-26T12:39:40.614Z,18.08
2018-09-26T12:42:09.276Z,18.37
2018-09-26T12:44:38.067Z,18.52
2018-09-26T12:47:06.813Z,18.59
2018-09-26T12:49:36.425Z,18.39
2018-09-26T12:52:05.047Z,18.46
2018-09-26T12:54:33.642Z,18.47
2018-09-26T12:57:02.226Z,18.49
2018-09-26T12:59:30.863Z,18.60
2018-09-26T13:01:59.494Z,18.76
2018-09-26T13:04:28.247Z,19.10
2018-09-26T13:06:56.749Z,19.27
2018-09-26T13:09:25.358Z,19.47
2018-09-26T13:11:54.026Z,19.73
2018-09-26T13:14:22.701Z,19.74
2018-09-26T13:16:51.465Z,19.77
2018-09-26T13:19:20.071Z,19.82
2018-09-26T13:21:48.698Z,19.75
2018-09-26T13:24:23.707Z,19.78
2018-09-26T13:26:52.325Z,19.84
2018-09-26T13:29:20.953Z,20.26
2018-09-26T13:31:49.558Z,20.37
2018-09-26T13:34:18.282Z,20.51
2018-09-26T13:36:46.976Z,20.63
2018-09-26T13:39:15.595Z,20.48
2018-09-26T13:41:44.188Z,20.52
2018-09-26T13:44:13.043Z,20.40
2018-09-26T13:46:41.720Z,20.31
2018-09-26T13:49:10.375Z,20.38
2018-09-26T13:51:39.031Z,20.51
2018-09-26T13:54:07.840Z,20.57
2018-09-26T13:56:36.326Z,20.79
2018-09-26T13:59:04.885Z,21.18
2018-09-26T14:01:33.473Z,21.72
2018-09-26T14:04:02.126Z,21.88
2018-09-26T14:06:32.088Z,22.81
2018-09-26T14:09:00.646Z,23.67
2018-09-26T14:11:34.439Z,24.02
2018-09-26T14:14:03.153Z,23.99
2018-09-26T14:16:32.439Z,24.36
2018-09-26T14:19:01.164Z,24.90
2018-09-26T14:21:29.838Z,25.45
2018-09-26T14:23:58.519Z,26.08
2018-09-26T14:26:27.305Z,26.47
2018-09-26T14:28:56.224Z,26.42
2018-09-26T14:31:24.884Z,26.76
2018-09-26T14:33:53.659Z,26.55
2018-09-26T14:36:22.296Z,26.81
2018-09-26T14:38:50.921Z,27.46
2018-09-26T14:41:19.574Z,27.59
2018-09-26T14:43:48.179Z,27.67
2018-09-26T14:46:16.795Z,27.96
2018-09-26T14:48:51.826Z,27.78
2018-09-26T14:51:20.558Z,28.21
2018-09-26T14:53:49.246Z,28.01
2018-09-26T14:56:17.920Z,28.20
2018-09-26T14:58:46.507Z,28.20
2018-09-26T15:01:15.119Z,28.68
2018-09-26T15:03:43.740Z,29.14
2018-09-26T15:06:12.483Z,29.04
2018-09-26T15:08:41.182Z,28.87
2018-09-26T15:11:09.761Z,28.49
2018-09-26T15:13:38.371Z,28.23
2018-09-26T15:16:07.403Z,28.30
2018-09-26T15:18:35.991Z,28.11
2018-09-26T15:21:04.646Z,28.15
2018-09-26T15:23:33.292Z,27.97
2018-09-26T15:26:02.030Z,28.34
2018-09-26T15:28:30.792Z,28.55
2018-09-26T15:30:59.347Z,28.76
2018-09-26T15:33:28.002Z,28.86
2018-09-26T15:35:56.595Z,28.63
2018-09-26T15:38:25.310Z,28.53
2018-09-26T15:40:53.749Z,28.26
2018-09-26T15:43:22.504Z,27.88
2018-09-26T15:45:51.287Z,27.57
2018-09-26T15:48:20.147Z,27.85
2018-09-26T15:50:48.712Z,27.58
2018-09-26T15:53:17.304Z,27.56
2018-09-26T15:55:45.846Z,27.15
2018-09-26T15:58:14.575Z,26.62
2018-09-26T16:00:43.257Z,26.15
2018-09-26T16:03:11.990Z,25.07
2018-09-26T16:05:40.752Z,24.22
2018-09-26T16:08:09.635Z,23.04
2018-09-26T16:10:39.193Z,21.93
2018-09-26T16:13:07.888Z,20.99
2018-09-26T16:15:36.587Z,20.41
2018-09-26T16:18:05.423Z,19.77
2018-09-26T16:20:34.212Z,19.22
2018-09-26T16:23:02.946Z,18.67
2018-09-26T16:25:32.559Z,18.25
2018-09-26T16:28:01.106Z,17.83
2018-09-26T16:30:29.723Z,17.39
2018-09-26T16:32:58.611Z,16.84
2018-09-26T16:35:27.467Z,16.41
2018-09-26T16:37:56.324Z,16.09
2018-09-26T16:40:24.988Z,15.87
2018-09-26T16:42:53.542Z,15.55
2018-09-26T16:45:22.287Z,15.27
2018-09-26T16:47:50.825Z,14.99
2018-09-26T16:50:19.615Z,14.86
2018-09-26T16:52:48.260Z,14.57
2018-09-26T16:55:17.018Z,14.30
2018-09-26T16:57:45.758Z,14.09
2018-09-26T17:00:14.567Z,13.89
2018-09-26T17:02:43.190Z,13.71
2018-09-26T17:05:12.014Z,13.70
2018-09-26T17:07:41.368Z,13.51
2018-09-26T17:10:10.540Z,13.32
2018-09-26T17:12:39.214Z,13.17
2018-09-26T17:15:09.131Z,13.03
2018-09-26T17:17:38.023Z,12.92
2018-09-26T17:20:11.262Z,12.74
2018-09-26T17:22:40.086Z,12.65
2018-09-26T17:25:09.057Z,12.48
2018-09-26T17:27:37.731Z,12.36
2018-09-26T17:30:06.744Z,12.22
2018-09-26T17:32:35.369Z,12.14
2018-09-26T17:35:05.897Z,12.07
2018-09-26T17:37:34.785Z,12.02
2018-09-26T17:40:03.503Z,12.03
2018-09-26T17:42:32.418Z,12.06
2018-09-26T17:45:01.328Z,11.96
2018-09-26T17:47:30.433Z,11.87
2018-09-26T17:49:59.860Z,11.83
2018-09-26T17:52:28.612Z,11.82
2018-09-26T17:54:57.358Z,11.81
2018-09-26T17:57:26.449Z,11.70
2018-09-26T17:59:55.063Z,11.65
2018-09-26T18:02:23.808Z,11.61
2018-09-26T18:04:52.503Z,11.65
2018-09-26T18:07:21.250Z,11.53
2018-09-26T18:09:50.037Z,11.48
2018-09-26T18:12:18.955Z,11.38
2018-09-26T18:14:47.848Z,11.31
2018-09-26T18:17:16.707Z,11.30
2018-09-26T18:19:45.478Z,11.32
2018-09-26T18:22:14.168Z,11.36
2018-09-26T18:24:42.717Z,11.40
2018-09-26T18:27:12.322Z,11.56
2018-09-26T18:29:41.095Z,11.47
2018-09-26T18:32:09.816Z,11.40
2018-09-26T18:34:38.563Z,11.31
2018-09-26T18:37:07.323Z,11.20
2018-09-26T18:39:36.080Z,11.09
2018-09-26T18:42:04.763Z,11.06
2018-09-26T18:44:33.435Z,10.92
2018-09-26T18:47:02.149Z,10.87
2018-09-26T18:49:31.108Z,10.76
2018-09-26T18:51:59.808Z,10.63
2018-09-26T18:54:28.537Z,10.65
2018-09-26T18:56:57.568Z,10.52
2018-09-26T18:59:26.380Z,10.47
2018-09-26T19:01:55.643Z,10.44
2018-09-26T19:04:24.940Z,10.41
2018-09-26T19:07:00.024Z,10.33
2018-09-26T19:09:28.978Z,10.29
2018-09-26T19:11:57.818Z,10.27
2018-09-26T19:14:27.979Z,10.27
2018-09-26T19:16:57.217Z,10.16
2018-09-26T19:19:26.201Z,10.12
2018-09-26T19:21:54.887Z,10.03
2018-09-26T19:24:23.890Z,9.91
2018-09-26T19:26:53.092Z,9.85
2018-09-26T19:29:22.410Z,9.78
2018-09-26T19:31:51.259Z,9.71
2018-09-26T19:34:20.894Z,9.65
2018-09-26T19:36:49.851Z,9.63
2018-09-26T19:39:18.972Z,9.55
2018-09-26T19:41:48.430Z,9.50
2018-09-26T19:44:17.150Z,9.46
2018-09-26T19:46:48.293Z,9.37
2018-09-26T19:49:17.900Z,9.36
2018-09-26T19:51:47.220Z,9.36
2018-09-26T19:54:16.207Z,9.33
2018-09-26T19:56:45.078Z,9.30
2018-09-26T19:59:14.051Z,9.31
2018-09-26T20:01:43.006Z,9.32
2018-09-26T20:04:14.216Z,9.33
2018-09-26T20:06:42.892Z,9.29
2018-09-26T20:09:12.773Z,9.28
2018-09-26T20:11:42.052Z,9.29
2018-09-26T20:14:11.661Z,9.29
2018-09-26T20:16:40.331Z,9.28
2018-09-26T20:19:09.078Z,9.28
2018-09-26T20:21:37.754Z,9.34
2018-09-26T20:24:06.630Z,9.36
2018-09-26T20:26:36.323Z,9.31
2018-09-26T20:29:05.051Z,9.26
2018-09-26T20:31:33.679Z,9.24
2018-09-26T20:34:02.426Z,9.26
2018-09-26T20:36:36.609Z,9.27
2018-09-26T20:39:08.085Z,9.27
2018-09-26T20:41:36.748Z,9.26
2018-09-26T20:44:05.437Z,9.23
2018-09-26T20:46:34.070Z,9.18
2018-09-26T20:49:02.719Z,9.19
2018-09-26T20:51:31.623Z,9.14
2018-09-26T20:54:00.203Z,9.12
2018-09-26T20:56:28.907Z,9.12
2018-09-26T20:58:58.310Z,9.15
2018-09-26T21:01:26.979Z,9.22
2018-09-26T21:03:55.677Z,9.34
2018-09-26T21:06:24.434Z,9.38
2018-09-26T21:08:54.661Z,9.40
2018-09-26T21:11:23.352Z,9.31
2018-09-26T21:13:52.013Z,9.28
2018-09-26T21:16:20.653Z,9.18
2018-09-26T21:18:49.279Z,9.07
2018-09-26T21:21:17.889Z,8.97
2018-09-26T21:23:46.503Z,8.90
2018-09-26T21:26:15.084Z,8.80
2018-09-26T21:28:44.417Z,8.77
2018-09-26T21:31:13.178Z,8.72
2018-09-26T21:33:41.711Z,8.66
2018-09-26T21:36:10.287Z,8.64
2018-09-26T21:38:38.830Z,8.59
2018-09-26T21:41:07.458Z,8.58
2018-09-26T21:43:36.123Z,8.57
2018-09-26T21:46:04.834Z,8.55
2018-09-26T21:48:33.397Z,8.55
2018-09-26T21:51:01.986Z,8.61
2018-09-26T21:53:30.607Z,8.71
2018-09-26T21:55:59.225Z,8.71
2018-09-26T21:58:27.789Z,8.77
2018-09-26T22:01:01.610Z,8.95
2018-09-26T22:03:30.289Z,8.99
2018-09-26T22:05:58.865Z,8.96
2018-09-26T22:08:27.417Z,8.82
2018-09-26T22:10:55.968Z,8.89
2018-09-26T22:13:24.529Z,8.84
2018-09-26T22:15:53.121Z,8.94
2018-09-26T22:18:21.669Z,8.78
2018-09-26T22:20:50.249Z,8.61
2018-09-26T22:23:18.841Z,8.45
2018-09-26T22:25:47.390Z,8.35
2018-09-26T22:28:16.130Z,8.28
2018-09-26T22:30:44.731Z,8.30
2018-09-26T22:33:13.305Z,8.21
2018-09-26T22:35:41.838Z,8.15
2018-09-26T22:38:10.360Z,8.18
2018-09-26T22:40:38.982Z,8.23
2018-09-26T22:43:07.539Z,8.31
2018-09-26T22:45:36.234Z,8.27
2018-09-26T22:48:04.833Z,8.15
2018-09-26T22:50:33.377Z,8.06
2018-09-26T22:53:02.015Z,7.99
2018-09-26T22:55:30.590Z,7.92
2018-09-26T22:57:59.123Z,7.84
2018-09-26T23:00:27.689Z,7.80
2018-09-26T23:02:56.270Z,7.85
2018-09-26T23:07:58.582Z,7.96
2018-09-26T23:10:27.129Z,8.13
2018-09-26T23:12:55.698Z,8.06
2018-09-26T23:15:24.275Z,8.03
2018-09-26T23:17:52.834Z,8.07
2018-09-26T23:20:21.393Z,8.06
2018-09-26T23:22:49.978Z,8.03
2018-09-26T23:25:18.556Z,7.90
2018-09-26T23:27:47.185Z,7.82
2018-09-26T23:30:15.811Z,7.74
2018-09-26T23:32:44.357Z,7.65
2018-09-26T23:35:12.908Z,7.56
2018-09-26T23:37:46.950Z,7.48
2018-09-26T23:40:15.545Z,7.44
2018-09-26T23:42:44.082Z,7.37
2018-09-26T23:45:12.641Z,7.33
2018-09-26T23:47:41.241Z,7.34
2018-09-26T23:50:09.834Z,7.27
2018-09-26T23:52:38.446Z,7.24
2018-09-26T23:55:07.021Z,7.23
2018-09-26T23:57:35.566Z,7.20
